SAA074 FAOR-FYWH
Flight info
| Callsign | SAA074 |
|---|---|
| Flight time | 1h 49m |
| Altitude | 36000 |
| Route | LIV1C VASUR UQ24 ETOSA UL435 XOXAM UN182 AXODO AXODO1B |
| Aircraft | A320/M-V/N |
Departure
| Time | 2026-05-07 20:29 |
|---|---|
| Airport | O.R. Tambo International Airport (FAOR) |
Arrival
| Time | 2026-05-07 22:18 |
|---|---|
| Airport | Hosea Kutako International Airport (FYWH) |
| Time | Latitude | Longitude | Altitude | Speed | Heading |
|---|---|---|---|---|---|
| 2026-05-07 19:46 | -26.13606 | 28.23429 | 5547 ft | 0 kts | 96° |
| 2026-05-07 20:18 | -26.13605 | 28.23421 | 5547 ft | 4 kts | 95° |
| 2026-05-07 20:18 | -26.13604 | 28.23393 | 5547 ft | 4 kts | 85° |
| 2026-05-07 20:18 | -26.13609 | 28.23366 | 5548 ft | 4 kts | 59° |
| 2026-05-07 20:18 | -26.13623 | 28.23352 | 5550 ft | 2 kts | 3° |
| 2026-05-07 20:19 | -26.13624 | 28.23352 | 5550 ft | 0 kts | 2° |
| 2026-05-07 20:21 | -26.13623 | 28.23352 | 5550 ft | 2 kts | 2° |
| 2026-05-07 20:21 | -26.13590 | 28.23354 | 5550 ft | 8 kts | 4° |
| 2026-05-07 20:22 | -26.13526 | 28.23361 | 5547 ft | 10 kts | 6° |
| 2026-05-07 20:22 | -26.13456 | 28.23370 | 5550 ft | 10 kts | 6° |
| 2026-05-07 20:22 | -26.13383 | 28.23384 | 5550 ft | 11 kts | 11° |
| 2026-05-07 20:22 | -26.13305 | 28.23393 | 5550 ft | 12 kts | 5° |
| 2026-05-07 20:23 | -26.13224 | 28.23403 | 5546 ft | 12 kts | 6° |
| 2026-05-07 20:23 | -26.13139 | 28.23415 | 5547 ft | 12 kts | 18° |
| 2026-05-07 20:23 | -26.13117 | 28.23499 | 5546 ft | 13 kts | 97° |
| 2026-05-07 20:23 | -26.13128 | 28.23604 | 5546 ft | 15 kts | 97° |
| 2026-05-07 20:24 | -26.13104 | 28.23709 | 5548 ft | 16 kts | 27° |
| 2026-05-07 20:24 | -26.12995 | 28.23744 | 5545 ft | 17 kts | 16° |
| 2026-05-07 20:24 | -26.12878 | 28.23780 | 5545 ft | 18 kts | 15° |
| 2026-05-07 20:24 | -26.12749 | 28.23819 | 5542 ft | 19 kts | 14° |
| 2026-05-07 20:25 | -26.12617 | 28.23860 | 5542 ft | 20 kts | 15° |
| 2026-05-07 20:25 | -26.12472 | 28.23905 | 5538 ft | 22 kts | 16° |
| 2026-05-07 20:25 | -26.12318 | 28.23953 | 5536 ft | 24 kts | 16° |
| 2026-05-07 20:25 | -26.12154 | 28.24005 | 5533 ft | 26 kts | 16° |
| 2026-05-07 20:26 | -26.11976 | 28.24058 | 5530 ft | 27 kts | 15° |
| 2026-05-07 20:26 | -26.11783 | 28.24118 | 5525 ft | 30 kts | 15° |
| 2026-05-07 20:26 | -26.11582 | 28.24181 | 5524 ft | 30 kts | 15° |
| 2026-05-07 20:26 | -26.11378 | 28.24244 | 5523 ft | 31 kts | 15° |
| 2026-05-07 20:27 | -26.11166 | 28.24310 | 5517 ft | 33 kts | 16° |
| 2026-05-07 20:27 | -26.10967 | 28.24371 | 5513 ft | 19 kts | 15° |
| 2026-05-07 20:27 | -26.10826 | 28.24402 | 5510 ft | 21 kts | 12° |
| 2026-05-07 20:27 | -26.10790 | 28.24521 | 5508 ft | 20 kts | 106° |
| 2026-05-07 20:28 | -26.10872 | 28.24603 | 5508 ft | 18 kts | 194° |
| 2026-05-07 20:28 | -26.11004 | 28.24562 | 5512 ft | 31 kts | 195° |
| 2026-05-07 20:28 | -26.11441 | 28.24426 | 5525 ft | 97 kts | 195° |
| 2026-05-07 20:28 | -26.12270 | 28.24170 | 5532 ft | 148 kts | 195° |
| 2026-05-07 20:29 | -26.13385 | 28.23819 | 5740 ft | 175 kts | 196° |
| 2026-05-07 20:29 | -26.14548 | 28.23455 | 6566 ft | 173 kts | 197° |
| 2026-05-07 20:29 | -26.15697 | 28.23096 | 7330 ft | 172 kts | 198° |
| 2026-05-07 20:29 | -26.16840 | 28.22600 | 7666 ft | 186 kts | 210° |
| 2026-05-07 20:30 | -26.17951 | 28.21712 | 7845 ft | 209 kts | 224° |
| 2026-05-07 20:30 | -26.18905 | 28.20371 | 8092 ft | 235 kts | 239° |
| 2026-05-07 20:30 | -26.19519 | 28.18585 | 8430 ft | 260 kts | 257° |
| 2026-05-07 20:30 | -26.19563 | 28.16530 | 9081 ft | 273 kts | 276° |
| 2026-05-07 20:31 | -26.18955 | 28.14501 | 9852 ft | 282 kts | 294° |
| 2026-05-07 20:31 | -26.18031 | 28.12554 | 10483 ft | 290 kts | 293° |
| 2026-05-07 20:31 | -26.17136 | 28.10444 | 10658 ft | 313 kts | 291° |
| 2026-05-07 20:31 | -26.16180 | 28.08186 | 10900 ft | 330 kts | 293° |
| 2026-05-07 20:32 | -26.15124 | 28.05890 | 11539 ft | 335 kts | 295° |
| 2026-05-07 20:32 | -26.13988 | 28.03620 | 12235 ft | 337 kts | 297° |
| 2026-05-07 20:32 | -26.12789 | 28.01372 | 12948 ft | 338 kts | 298° |
| 2026-05-07 20:32 | -26.11540 | 27.99146 | 13668 ft | 341 kts | 302° |
| 2026-05-07 20:33 | -26.09843 | 27.97276 | 14285 ft | 351 kts | 323° |
| 2026-05-07 20:33 | -26.07584 | 27.96156 | 14845 ft | 360 kts | 336° |
| 2026-05-07 20:33 | -26.05204 | 27.95248 | 15402 ft | 363 kts | 336° |
| 2026-05-07 20:33 | -26.02805 | 27.94344 | 15926 ft | 366 kts | 336° |
| 2026-05-07 20:34 | -26.00386 | 27.93434 | 16458 ft | 368 kts | 336° |
| 2026-05-07 20:34 | -25.97952 | 27.92515 | 16991 ft | 370 kts | 336° |
| 2026-05-07 20:34 | -25.95487 | 27.91637 | 17540 ft | 376 kts | 341° |
| 2026-05-07 20:34 | -25.92867 | 27.91226 | 18079 ft | 385 kts | 352° |
| 2026-05-07 20:35 | -25.90177 | 27.91090 | 18614 ft | 388 kts | 352° |
| 2026-05-07 20:35 | -25.87471 | 27.90956 | 19083 ft | 391 kts | 352° |
| 2026-05-07 20:35 | -25.84746 | 27.90818 | 19558 ft | 393 kts | 351° |
| 2026-05-07 20:35 | -25.82006 | 27.90673 | 20033 ft | 395 kts | 351° |
| 2026-05-07 20:36 | -25.79249 | 27.90526 | 20518 ft | 398 kts | 351° |
| 2026-05-07 20:36 | -25.76477 | 27.90378 | 20966 ft | 400 kts | 351° |
| 2026-05-07 20:36 | -25.73690 | 27.90230 | 21429 ft | 402 kts | 351° |
| 2026-05-07 20:36 | -25.70886 | 27.90084 | 21877 ft | 404 kts | 351° |
| 2026-05-07 20:37 | -25.68068 | 27.89938 | 22310 ft | 407 kts | 350° |
| 2026-05-07 20:37 | -25.65235 | 27.89791 | 22728 ft | 409 kts | 350° |
| 2026-05-07 20:37 | -25.62388 | 27.89621 | 23147 ft | 409 kts | 347° |
| 2026-05-07 20:37 | -25.59644 | 27.88975 | 23549 ft | 399 kts | 334° |
| 2026-05-07 20:38 | -25.57166 | 27.87678 | 23923 ft | 391 kts | 321° |
| 2026-05-07 20:38 | -25.55055 | 27.85834 | 24268 ft | 384 kts | 309° |
| 2026-05-07 20:38 | -25.53388 | 27.83561 | 24627 ft | 379 kts | 298° |
| 2026-05-07 20:38 | -25.52102 | 27.81068 | 24986 ft | 378 kts | 296° |
| 2026-05-07 20:39 | -25.50820 | 27.78521 | 25371 ft | 379 kts | 296° |
| 2026-05-07 20:39 | -25.49532 | 27.75968 | 25739 ft | 380 kts | 296° |
| 2026-05-07 20:39 | -25.48239 | 27.73409 | 26099 ft | 381 kts | 296° |
| 2026-05-07 20:39 | -25.46941 | 27.70844 | 26460 ft | 383 kts | 296° |
| 2026-05-07 20:40 | -25.45636 | 27.68272 | 26826 ft | 384 kts | 296° |
| 2026-05-07 20:40 | -25.44327 | 27.65693 | 27196 ft | 385 kts | 296° |
| 2026-05-07 20:40 | -25.43010 | 27.63106 | 27562 ft | 387 kts | 296° |
| 2026-05-07 20:40 | -25.41687 | 27.60511 | 27927 ft | 388 kts | 296° |
| 2026-05-07 20:41 | -25.40361 | 27.57908 | 28285 ft | 389 kts | 296° |
| 2026-05-07 20:41 | -25.39029 | 27.55295 | 28641 ft | 390 kts | 296° |
| 2026-05-07 20:41 | -25.37694 | 27.52682 | 29071 ft | 389 kts | 296° |
| 2026-05-07 20:41 | -25.36365 | 27.50083 | 29594 ft | 387 kts | 296° |
| 2026-05-07 20:42 | -25.35046 | 27.47501 | 30124 ft | 384 kts | 295° |
| 2026-05-07 20:42 | -25.33736 | 27.44936 | 30572 ft | 382 kts | 295° |
| 2026-05-07 20:42 | -25.32432 | 27.42380 | 30940 ft | 381 kts | 296° |
| 2026-05-07 20:42 | -25.31130 | 27.39832 | 31347 ft | 380 kts | 296° |
| 2026-05-07 20:43 | -25.29834 | 27.37297 | 31757 ft | 378 kts | 295° |
| 2026-05-07 20:43 | -25.28544 | 27.34772 | 32176 ft | 376 kts | 295° |
| 2026-05-07 20:43 | -25.27260 | 27.32260 | 32602 ft | 375 kts | 295° |
| 2026-05-07 20:43 | -25.25980 | 27.29761 | 33034 ft | 373 kts | 295° |
| 2026-05-07 20:44 | -25.24706 | 27.27276 | 33462 ft | 371 kts | 295° |
| 2026-05-07 20:44 | -25.23436 | 27.24801 | 33908 ft | 369 kts | 295° |
| 2026-05-07 20:44 | -25.22173 | 27.22340 | 34323 ft | 367 kts | 295° |
| 2026-05-07 20:44 | -25.20916 | 27.19896 | 34669 ft | 365 kts | 295° |
| 2026-05-07 20:45 | -25.19722 | 27.17432 | 35010 ft | 362 kts | 293° |
| 2026-05-07 20:45 | -25.18638 | 27.14971 | 35376 ft | 360 kts | 292° |
| 2026-05-07 20:45 | -25.17594 | 27.12474 | 35750 ft | 357 kts | 291° |
| 2026-05-07 20:45 | -25.16574 | 27.09983 | 36088 ft | 356 kts | 291° |
| 2026-05-07 20:46 | -25.15549 | 27.07489 | 36168 ft | 358 kts | 291° |
| 2026-05-07 20:46 | -25.13425 | 27.02425 | 36154 ft | 367 kts | 292° |
| 2026-05-07 20:47 | -25.11234 | 26.97307 | 36177 ft | 370 kts | 292° |
| 2026-05-07 20:47 | -25.09026 | 26.92177 | 36165 ft | 370 kts | 292° |
| 2026-05-07 20:48 | -25.06818 | 26.87053 | 36168 ft | 370 kts | 292° |
| 2026-05-07 20:48 | -25.04613 | 26.81927 | 36178 ft | 370 kts | 292° |
| 2026-05-07 20:49 | -25.02408 | 26.76794 | 36177 ft | 370 kts | 292° |
| 2026-05-07 20:49 | -25.00201 | 26.71662 | 36173 ft | 371 kts | 292° |
| 2026-05-07 20:50 | -24.97986 | 26.66526 | 36175 ft | 371 kts | 292° |
| 2026-05-07 20:50 | -24.95769 | 26.61392 | 36182 ft | 371 kts | 292° |
| 2026-05-07 20:51 | -24.93546 | 26.56259 | 36141 ft | 371 kts | 292° |
| 2026-05-07 20:51 | -24.91321 | 26.51121 | 36146 ft | 372 kts | 292° |
| 2026-05-07 20:52 | -24.89095 | 26.45977 | 36157 ft | 372 kts | 292° |
| 2026-05-07 20:52 | -24.86863 | 26.40832 | 36164 ft | 373 kts | 292° |
| 2026-05-07 20:53 | -24.84624 | 26.35683 | 36165 ft | 373 kts | 292° |
| 2026-05-07 20:53 | -24.82385 | 26.30534 | 36172 ft | 373 kts | 292° |
| 2026-05-07 20:54 | -24.80142 | 26.25387 | 36184 ft | 373 kts | 292° |
| 2026-05-07 20:54 | -24.77897 | 26.20247 | 36180 ft | 373 kts | 292° |
| 2026-05-07 20:55 | -24.75654 | 26.15100 | 36173 ft | 373 kts | 292° |
| 2026-05-07 20:55 | -24.73408 | 26.09950 | 36140 ft | 374 kts | 292° |
| 2026-05-07 20:56 | -24.71147 | 26.04795 | 36154 ft | 375 kts | 294° |
| 2026-05-07 20:56 | -24.68615 | 25.99771 | 36158 ft | 376 kts | 297° |
| 2026-05-07 20:57 | -24.65928 | 25.94833 | 36170 ft | 376 kts | 297° |
| 2026-05-07 20:57 | -24.63280 | 25.89920 | 36168 ft | 376 kts | 296° |
| 2026-05-07 20:58 | -24.60663 | 25.84945 | 36173 ft | 375 kts | 294° |
| 2026-05-07 20:58 | -24.59096 | 25.79546 | 36176 ft | 372 kts | 281° |
| 2026-05-07 20:59 | -24.58108 | 25.73965 | 36176 ft | 372 kts | 281° |
| 2026-05-07 20:59 | -24.57104 | 25.68390 | 36177 ft | 372 kts | 281° |
| 2026-05-07 21:00 | -24.56092 | 25.62819 | 36193 ft | 372 kts | 281° |
| 2026-05-07 21:00 | -24.55080 | 25.57250 | 36164 ft | 372 kts | 281° |
| 2026-05-07 21:01 | -24.54065 | 25.51676 | 36170 ft | 372 kts | 281° |
| 2026-05-07 21:01 | -24.53047 | 25.46096 | 36176 ft | 373 kts | 281° |
| 2026-05-07 21:02 | -24.52027 | 25.40512 | 36178 ft | 373 kts | 281° |
| 2026-05-07 21:02 | -24.51007 | 25.34927 | 36186 ft | 373 kts | 281° |
| 2026-05-07 21:03 | -24.49986 | 25.29339 | 36204 ft | 373 kts | 281° |
| 2026-05-07 21:03 | -24.48960 | 25.23755 | 36198 ft | 373 kts | 281° |
| 2026-05-07 21:04 | -24.47930 | 25.18172 | 36202 ft | 373 kts | 281° |
| 2026-05-07 21:04 | -24.46895 | 25.12589 | 36200 ft | 373 kts | 281° |
| 2026-05-07 21:05 | -24.45859 | 25.07010 | 36201 ft | 373 kts | 281° |
| 2026-05-07 21:05 | -24.44826 | 25.01428 | 36202 ft | 373 kts | 281° |
| 2026-05-07 21:06 | -24.43796 | 24.95848 | 36206 ft | 373 kts | 281° |
| 2026-05-07 21:06 | -24.42759 | 24.90268 | 36204 ft | 373 kts | 281° |
| 2026-05-07 21:07 | -24.41725 | 24.84727 | 36203 ft | 373 kts | 281° |
| 2026-05-07 21:07 | -24.40669 | 24.79114 | 36161 ft | 373 kts | 281° |
| 2026-05-07 21:08 | -24.39634 | 24.73576 | 36176 ft | 373 kts | 281° |
| 2026-05-07 21:08 | -24.38585 | 24.67997 | 36186 ft | 374 kts | 281° |
| 2026-05-07 21:09 | -24.37408 | 24.62447 | 36192 ft | 374 kts | 284° |
| 2026-05-07 21:09 | -24.36250 | 24.57840 | 36192 ft | 374 kts | 284° |
| 2026-05-07 21:10 | -24.34855 | 24.52387 | 36191 ft | 374 kts | 284° |
| 2026-05-07 21:10 | -24.33491 | 24.46887 | 36197 ft | 374 kts | 284° |
| 2026-05-07 21:11 | -24.32145 | 24.41385 | 36198 ft | 374 kts | 284° |
| 2026-05-07 21:11 | -24.30121 | 24.33136 | 36202 ft | 374 kts | 284° |
| 2026-05-07 21:12 | -24.28769 | 24.27638 | 36194 ft | 374 kts | 284° |
| 2026-05-07 21:12 | -24.27408 | 24.22145 | 36188 ft | 373 kts | 284° |
| 2026-05-07 21:13 | -24.26047 | 24.16652 | 36194 ft | 373 kts | 284° |
| 2026-05-07 21:13 | -24.24688 | 24.11160 | 36194 ft | 373 kts | 284° |
| 2026-05-07 21:14 | -24.23332 | 24.05668 | 36166 ft | 374 kts | 284° |
| 2026-05-07 21:14 | -24.21966 | 24.00167 | 36169 ft | 374 kts | 284° |
| 2026-05-07 21:15 | -24.20595 | 23.94663 | 36172 ft | 375 kts | 284° |
| 2026-05-07 21:15 | -24.19225 | 23.89154 | 36177 ft | 375 kts | 284° |
| 2026-05-07 21:16 | -24.17848 | 23.83645 | 36178 ft | 375 kts | 284° |
| 2026-05-07 21:16 | -24.16469 | 23.78140 | 36181 ft | 375 kts | 284° |
| 2026-05-07 21:17 | -24.15090 | 23.72634 | 36188 ft | 375 kts | 284° |
| 2026-05-07 21:17 | -24.13709 | 23.67128 | 36188 ft | 375 kts | 284° |
| 2026-05-07 21:18 | -24.12340 | 23.61661 | 36194 ft | 375 kts | 284° |
| 2026-05-07 21:18 | -24.10955 | 23.56156 | 36193 ft | 375 kts | 284° |
| 2026-05-07 21:19 | -24.09566 | 23.50653 | 36187 ft | 375 kts | 284° |
| 2026-05-07 21:19 | -24.08181 | 23.45153 | 36186 ft | 375 kts | 284° |
| 2026-05-07 21:20 | -24.06790 | 23.39653 | 36172 ft | 375 kts | 284° |
| 2026-05-07 21:20 | -24.05395 | 23.34153 | 36166 ft | 375 kts | 284° |
| 2026-05-07 21:21 | -24.04002 | 23.28650 | 36171 ft | 376 kts | 284° |
| 2026-05-07 21:21 | -24.02608 | 23.23141 | 36173 ft | 376 kts | 284° |
| 2026-05-07 21:22 | -24.01207 | 23.17633 | 36180 ft | 376 kts | 284° |
| 2026-05-07 21:22 | -23.99801 | 23.12126 | 36182 ft | 376 kts | 284° |
| 2026-05-07 21:23 | -23.98393 | 23.06616 | 36186 ft | 376 kts | 284° |
| 2026-05-07 21:23 | -23.96986 | 23.01112 | 36186 ft | 376 kts | 284° |
| 2026-05-07 21:24 | -23.95579 | 22.95604 | 36188 ft | 376 kts | 284° |
| 2026-05-07 21:24 | -23.94169 | 22.90098 | 36188 ft | 376 kts | 284° |
| 2026-05-07 21:25 | -23.92753 | 22.84595 | 36188 ft | 376 kts | 284° |
| 2026-05-07 21:25 | -23.91333 | 22.79090 | 36189 ft | 376 kts | 284° |
| 2026-05-07 21:26 | -23.89917 | 22.73593 | 36189 ft | 376 kts | 284° |
| 2026-05-07 21:26 | -23.88505 | 22.68086 | 36156 ft | 376 kts | 284° |
| 2026-05-07 21:27 | -23.87086 | 22.62580 | 36161 ft | 377 kts | 284° |
| 2026-05-07 21:27 | -23.85657 | 22.57068 | 36166 ft | 377 kts | 284° |
| 2026-05-07 21:28 | -23.84237 | 22.51585 | 36170 ft | 378 kts | 284° |
| 2026-05-07 21:28 | -23.82810 | 22.46058 | 36175 ft | 378 kts | 284° |
| 2026-05-07 21:29 | -23.81380 | 22.40533 | 36183 ft | 378 kts | 284° |
| 2026-05-07 21:29 | -23.79942 | 22.35010 | 36184 ft | 378 kts | 284° |
| 2026-05-07 21:30 | -23.78502 | 22.29481 | 36185 ft | 378 kts | 284° |
| 2026-05-07 21:30 | -23.77063 | 22.23958 | 36186 ft | 378 kts | 284° |
| 2026-05-07 21:31 | -23.75612 | 22.18435 | 36192 ft | 378 kts | 284° |
| 2026-05-07 21:31 | -23.74163 | 22.12913 | 36192 ft | 378 kts | 284° |
| 2026-05-07 21:32 | -23.72713 | 22.07391 | 36188 ft | 379 kts | 284° |
| 2026-05-07 21:32 | -23.71263 | 22.01868 | 36186 ft | 379 kts | 284° |
| 2026-05-07 21:33 | -23.69815 | 21.96346 | 36184 ft | 379 kts | 284° |
| 2026-05-07 21:33 | -23.68363 | 21.90823 | 36180 ft | 379 kts | 284° |
| 2026-05-07 21:34 | -23.66904 | 21.85301 | 36185 ft | 379 kts | 284° |
| 2026-05-07 21:34 | -23.65447 | 21.79781 | 36188 ft | 379 kts | 284° |
| 2026-05-07 21:35 | -23.63986 | 21.74260 | 36181 ft | 379 kts | 284° |
| 2026-05-07 21:35 | -23.62521 | 21.68743 | 36186 ft | 379 kts | 284° |
| 2026-05-07 21:36 | -23.61056 | 21.63225 | 36183 ft | 379 kts | 284° |
| 2026-05-07 21:36 | -23.59598 | 21.57708 | 36185 ft | 379 kts | 284° |
| 2026-05-07 21:37 | -23.58131 | 21.52193 | 36186 ft | 379 kts | 285° |
| 2026-05-07 21:37 | -23.56668 | 21.46718 | 36179 ft | 379 kts | 285° |
| 2026-05-07 21:38 | -23.55196 | 21.41207 | 36183 ft | 379 kts | 285° |
| 2026-05-07 21:38 | -23.53718 | 21.35698 | 36180 ft | 379 kts | 285° |
| 2026-05-07 21:39 | -23.52234 | 21.30189 | 36182 ft | 379 kts | 285° |
| 2026-05-07 21:39 | -23.50753 | 21.24683 | 36157 ft | 379 kts | 285° |
| 2026-05-07 21:40 | -23.49271 | 21.19169 | 36156 ft | 380 kts | 285° |
| 2026-05-07 21:40 | -23.47788 | 21.13647 | 36168 ft | 380 kts | 285° |
| 2026-05-07 21:41 | -23.46303 | 21.08120 | 36163 ft | 381 kts | 285° |
| 2026-05-07 21:41 | -23.44812 | 21.02586 | 36175 ft | 381 kts | 285° |
| 2026-05-07 21:42 | -23.43315 | 20.97056 | 36176 ft | 381 kts | 285° |
| 2026-05-07 21:42 | -23.41808 | 20.91526 | 36175 ft | 381 kts | 285° |
| 2026-05-07 21:43 | -23.40310 | 20.85994 | 36182 ft | 381 kts | 285° |
| 2026-05-07 21:43 | -23.38814 | 20.80460 | 36176 ft | 381 kts | 285° |
| 2026-05-07 21:44 | -23.37304 | 20.74931 | 36171 ft | 381 kts | 285° |
| 2026-05-07 21:44 | -23.35807 | 20.69434 | 36171 ft | 381 kts | 285° |
| 2026-05-07 21:45 | -23.34303 | 20.63898 | 36179 ft | 382 kts | 285° |
| 2026-05-07 21:45 | -23.32788 | 20.58363 | 36179 ft | 382 kts | 285° |
| 2026-05-07 21:46 | -23.31272 | 20.52829 | 36168 ft | 382 kts | 285° |
| 2026-05-07 21:46 | -23.29755 | 20.47293 | 36151 ft | 382 kts | 285° |
| 2026-05-07 21:47 | -23.28232 | 20.41749 | 36154 ft | 383 kts | 285° |
| 2026-05-07 21:47 | -23.26700 | 20.36199 | 36163 ft | 383 kts | 285° |
| 2026-05-07 21:48 | -23.25174 | 20.30643 | 36171 ft | 384 kts | 285° |
| 2026-05-07 21:48 | -23.23641 | 20.25083 | 36173 ft | 384 kts | 285° |
| 2026-05-07 21:49 | -23.22105 | 20.19525 | 36169 ft | 384 kts | 285° |
| 2026-05-07 21:49 | -23.20573 | 20.13966 | 36169 ft | 384 kts | 285° |
| 2026-05-07 21:50 | -23.19035 | 20.08408 | 36165 ft | 384 kts | 285° |
| 2026-05-07 21:50 | -23.17489 | 20.02847 | 36167 ft | 384 kts | 285° |
| 2026-05-07 21:51 | -23.15956 | 19.97278 | 36169 ft | 385 kts | 284° |
| 2026-05-07 21:51 | -23.14489 | 19.91693 | 36171 ft | 384 kts | 284° |
| 2026-05-07 21:52 | -23.13033 | 19.86103 | 36169 ft | 384 kts | 284° |
| 2026-05-07 21:52 | -23.11555 | 19.80521 | 36171 ft | 385 kts | 284° |
| 2026-05-07 21:53 | -23.10078 | 19.74935 | 36133 ft | 385 kts | 284° |
| 2026-05-07 21:53 | -23.08596 | 19.69342 | 36140 ft | 386 kts | 284° |
| 2026-05-07 21:54 | -23.07099 | 19.63740 | 36148 ft | 386 kts | 284° |
| 2026-05-07 21:54 | -23.05600 | 19.58132 | 36155 ft | 387 kts | 284° |
| 2026-05-07 21:55 | -23.04102 | 19.52519 | 36160 ft | 387 kts | 284° |
| 2026-05-07 21:55 | -23.02607 | 19.46907 | 36164 ft | 387 kts | 284° |
| 2026-05-07 21:56 | -23.01108 | 19.41289 | 36160 ft | 387 kts | 284° |
| 2026-05-07 21:56 | -22.99610 | 19.35712 | 36159 ft | 388 kts | 284° |
| 2026-05-07 21:57 | -22.98104 | 19.30095 | 36160 ft | 388 kts | 284° |
| 2026-05-07 21:57 | -22.96592 | 19.24476 | 36158 ft | 388 kts | 284° |
| 2026-05-07 21:58 | -22.95084 | 19.18856 | 36157 ft | 388 kts | 284° |
| 2026-05-07 21:58 | -22.93827 | 19.14187 | 36159 ft | 388 kts | 284° |
| 2026-05-07 21:59 | -22.92810 | 19.10428 | 35948 ft | 389 kts | 284° |
| 2026-05-07 21:59 | -22.92306 | 19.08560 | 35493 ft | 391 kts | 284° |
| 2026-05-07 21:59 | -22.91541 | 19.05727 | 34846 ft | 392 kts | 284° |
| 2026-05-07 21:59 | -22.90771 | 19.02883 | 34184 ft | 394 kts | 284° |
| 2026-05-07 22:00 | -22.89994 | 19.00016 | 33363 ft | 398 kts | 284° |
| 2026-05-07 22:00 | -22.89212 | 18.97130 | 32596 ft | 400 kts | 284° |
| 2026-05-07 22:00 | -22.88429 | 18.94240 | 32023 ft | 397 kts | 284° |
| 2026-05-07 22:00 | -22.87654 | 18.91386 | 31577 ft | 392 kts | 284° |
| 2026-05-07 22:01 | -22.86886 | 18.88564 | 31098 ft | 389 kts | 284° |
| 2026-05-07 22:01 | -22.86121 | 18.85762 | 30614 ft | 385 kts | 284° |
| 2026-05-07 22:01 | -22.85364 | 18.82989 | 30131 ft | 382 kts | 284° |
| 2026-05-07 22:01 | -22.84616 | 18.80238 | 29612 ft | 378 kts | 284° |
| 2026-05-07 22:02 | -22.83877 | 18.77523 | 29148 ft | 373 kts | 284° |
| 2026-05-07 22:02 | -22.83147 | 18.74839 | 28686 ft | 369 kts | 284° |
| 2026-05-07 22:02 | -22.82424 | 18.72190 | 28232 ft | 365 kts | 284° |
| 2026-05-07 22:02 | -22.81707 | 18.69566 | 27775 ft | 361 kts | 284° |
| 2026-05-07 22:03 | -22.80997 | 18.66964 | 27329 ft | 358 kts | 284° |
| 2026-05-07 22:03 | -22.80295 | 18.64386 | 26895 ft | 355 kts | 283° |
| 2026-05-07 22:03 | -22.79597 | 18.61825 | 26456 ft | 353 kts | 283° |
| 2026-05-07 22:03 | -22.78901 | 18.59281 | 26033 ft | 351 kts | 283° |
| 2026-05-07 22:04 | -22.78208 | 18.56751 | 25611 ft | 349 kts | 283° |
| 2026-05-07 22:04 | -22.77516 | 18.54238 | 25199 ft | 347 kts | 283° |
| 2026-05-07 22:04 | -22.76829 | 18.51743 | 24804 ft | 344 kts | 283° |
| 2026-05-07 22:04 | -22.76148 | 18.49264 | 24402 ft | 342 kts | 283° |
| 2026-05-07 22:05 | -22.75472 | 18.46802 | 24027 ft | 340 kts | 283° |
| 2026-05-07 22:05 | -22.74801 | 18.44359 | 23638 ft | 337 kts | 283° |
| 2026-05-07 22:05 | -22.74138 | 18.41938 | 23217 ft | 333 kts | 283° |
| 2026-05-07 22:05 | -22.73482 | 18.39546 | 22840 ft | 329 kts | 283° |
| 2026-05-07 22:06 | -22.72832 | 18.37186 | 22474 ft | 326 kts | 283° |
| 2026-05-07 22:06 | -22.72184 | 18.34839 | 22069 ft | 325 kts | 283° |
| 2026-05-07 22:06 | -22.71437 | 18.32534 | 21646 ft | 325 kts | 290° |
| 2026-05-07 22:06 | -22.70357 | 18.30378 | 21227 ft | 326 kts | 296° |
| 2026-05-07 22:07 | -22.69209 | 18.28258 | 20792 ft | 325 kts | 296° |
| 2026-05-07 22:07 | -22.68068 | 18.26153 | 20354 ft | 324 kts | 296° |
| 2026-05-07 22:07 | -22.66928 | 18.24049 | 19890 ft | 323 kts | 296° |
| 2026-05-07 22:07 | -22.65794 | 18.21954 | 19460 ft | 323 kts | 296° |
| 2026-05-07 22:08 | -22.64660 | 18.19855 | 19006 ft | 323 kts | 296° |
| 2026-05-07 22:08 | -22.63525 | 18.17756 | 18549 ft | 323 kts | 295° |
| 2026-05-07 22:08 | -22.62389 | 18.15656 | 18043 ft | 324 kts | 296° |
| 2026-05-07 22:08 | -22.61252 | 18.13560 | 17577 ft | 322 kts | 296° |
| 2026-05-07 22:09 | -22.60119 | 18.11472 | 17116 ft | 321 kts | 296° |
| 2026-05-07 22:09 | -22.58991 | 18.09390 | 16660 ft | 320 kts | 296° |
| 2026-05-07 22:09 | -22.57882 | 18.07342 | 16209 ft | 320 kts | 296° |
| 2026-05-07 22:09 | -22.56744 | 18.05242 | 15734 ft | 319 kts | 296° |
| 2026-05-07 22:10 | -22.55639 | 18.03203 | 15289 ft | 319 kts | 296° |
| 2026-05-07 22:10 | -22.54515 | 18.01135 | 14828 ft | 318 kts | 297° |
| 2026-05-07 22:10 | -22.53394 | 17.99069 | 14374 ft | 318 kts | 297° |
| 2026-05-07 22:10 | -22.52273 | 17.97005 | 13916 ft | 318 kts | 297° |
| 2026-05-07 22:11 | -22.51137 | 17.94913 | 13412 ft | 318 kts | 297° |
| 2026-05-07 22:11 | -22.50045 | 17.92905 | 13191 ft | 309 kts | 297° |
| 2026-05-07 22:11 | -22.48972 | 17.90937 | 13058 ft | 298 kts | 297° |
| 2026-05-07 22:11 | -22.47935 | 17.89036 | 12923 ft | 289 kts | 297° |
| 2026-05-07 22:12 | -22.46922 | 17.87182 | 12650 ft | 284 kts | 297° |
| 2026-05-07 22:12 | -22.45923 | 17.85347 | 12396 ft | 283 kts | 297° |
| 2026-05-07 22:12 | -22.44929 | 17.83514 | 12057 ft | 282 kts | 297° |
| 2026-05-07 22:12 | -22.43939 | 17.81689 | 11717 ft | 281 kts | 298° |
| 2026-05-07 22:13 | -22.42951 | 17.79873 | 11382 ft | 280 kts | 298° |
| 2026-05-07 22:13 | -22.41965 | 17.78065 | 11046 ft | 279 kts | 298° |
| 2026-05-07 22:13 | -22.40980 | 17.76265 | 10716 ft | 278 kts | 298° |
| 2026-05-07 22:13 | -22.40154 | 17.74396 | 10383 ft | 275 kts | 285° |
| 2026-05-07 22:14 | -22.39828 | 17.72368 | 10055 ft | 274 kts | 278° |
| 2026-05-07 22:14 | -22.39558 | 17.70334 | 9703 ft | 273 kts | 278° |
| 2026-05-07 22:14 | -22.39284 | 17.68301 | 9322 ft | 274 kts | 278° |
| 2026-05-07 22:14 | -22.39265 | 17.66253 | 8871 ft | 274 kts | 257° |
| 2026-05-07 22:15 | -22.39981 | 17.64410 | 8496 ft | 256 kts | 245° |
| 2026-05-07 22:15 | -22.40755 | 17.62762 | 8174 ft | 237 kts | 245° |
| 2026-05-07 22:15 | -22.41477 | 17.61208 | 7875 ft | 224 kts | 245° |
| 2026-05-07 22:15 | -22.42164 | 17.59721 | 7596 ft | 219 kts | 245° |
| 2026-05-07 22:16 | -22.42836 | 17.58265 | 7320 ft | 213 kts | 245° |
| 2026-05-07 22:16 | -22.43476 | 17.56880 | 7059 ft | 199 kts | 245° |
| 2026-05-07 22:16 | -22.44078 | 17.55578 | 6826 ft | 186 kts | 245° |
| 2026-05-07 22:16 | -22.44634 | 17.54374 | 6596 ft | 171 kts | 245° |
| 2026-05-07 22:17 | -22.45148 | 17.53260 | 6377 ft | 163 kts | 244° |
| 2026-05-07 22:17 | -22.45649 | 17.52170 | 6181 ft | 160 kts | 244° |
| 2026-05-07 22:17 | -22.46140 | 17.51103 | 5999 ft | 157 kts | 244° |
| 2026-05-07 22:17 | -22.46621 | 17.50062 | 5760 ft | 153 kts | 243° |
| 2026-05-07 22:18 | -22.47093 | 17.49047 | 5564 ft | 150 kts | 243° |
| 2026-05-07 22:18 | -22.47748 | 17.47624 | 5551 ft | 46 kts | 244° |
| 2026-05-07 22:18 | -22.47870 | 17.47359 | 5558 ft | 29 kts | 244° |
| 2026-05-07 22:19 | -22.47949 | 17.47187 | 5561 ft | 23 kts | 243° |
| 2026-05-07 22:19 | -22.48013 | 17.47111 | 5563 ft | 5 kts | 149° |
| 2026-05-07 22:19 | -22.48049 | 17.47149 | 5563 ft | 9 kts | 142° |
| 2026-05-07 22:19 | -22.48096 | 17.47134 | 5564 ft | 9 kts | 242° |
| 2026-05-07 22:20 | -22.48134 | 17.47050 | 5563 ft | 14 kts | 244° |
| 2026-05-07 22:20 | -22.48181 | 17.46948 | 5561 ft | 16 kts | 243° |
| 2026-05-07 22:20 | -22.48231 | 17.46838 | 5564 ft | 16 kts | 243° |
| 2026-05-07 22:20 | -22.48282 | 17.46727 | 5564 ft | 17 kts | 244° |
| 2026-05-07 22:21 | -22.48337 | 17.46605 | 5564 ft | 19 kts | 243° |
| 2026-05-07 22:21 | -22.48394 | 17.46480 | 5567 ft | 18 kts | 244° |
| 2026-05-07 22:21 | -22.48453 | 17.46356 | 5567 ft | 19 kts | 242° |
| 2026-05-07 22:21 | -22.48510 | 17.46228 | 5569 ft | 19 kts | 244° |
| 2026-05-07 22:22 | -22.48566 | 17.46110 | 5572 ft | 17 kts | 242° |
| 2026-05-07 22:22 | -22.48630 | 17.46058 | 5572 ft | 13 kts | 156° |
| 2026-05-07 22:22 | -22.48702 | 17.46113 | 5568 ft | 3 kts | 139° |
| 2026-05-07 22:22 | -22.48721 | 17.46112 | 5568 ft | 3 kts | 220° |
| 2026-05-07 22:23 | -22.48717 | 17.46103 | 5567 ft | 0 kts | 323° |
| 2026-05-07 22:23 | -22.48709 | 17.46100 | 5568 ft | 2 kts | 335° |
| 2026-05-07 22:23 | -22.48697 | 17.46094 | 5568 ft | 2 kts | 335° |
| 2026-05-07 22:23 | -22.48686 | 17.46088 | 5568 ft | 1 kts | 332° |
| 2026-05-07 22:24 | -22.48680 | 17.46085 | 5568 ft | 1 kts | 332° |
| 2026-05-07 22:24 | -22.48676 | 17.46083 | 5569 ft | 1 kts | 333° |
| 2026-05-07 22:24 | -22.48669 | 17.46079 | 5570 ft | 0 kts | 333° |
| 2026-05-07 22:24 | -22.48536 | 17.46451 | 5567 ft | 0 kts | 332° |